createdAt,value
2023-04-07T00:01:11.681Z,8.9
2023-04-07T00:21:14.566Z,8.9
2023-04-07T00:41:14.288Z,8.6
2023-04-07T01:01:08.288Z,8.6
2023-04-07T01:21:14.047Z,8.3
2023-04-07T01:41:21.272Z,7.9
2023-04-07T02:01:10.263Z,7.9
2023-04-07T02:21:09.396Z,7.6
2023-04-07T02:40:56.682Z,7.5
2023-04-07T03:00:56.149Z,7.4
2023-04-07T03:20:52.475Z,7.2
2023-04-07T03:40:52.950Z,7.2
2023-04-07T04:01:09.949Z,7.2
2023-04-07T04:20:48.641Z,7.1
2023-04-07T04:40:52.592Z,7.1
2023-04-07T05:00:52.589Z,7
2023-04-07T05:21:10.813Z,6.8
2023-04-07T05:41:08.179Z,6.8
2023-04-07T06:01:06.872Z,6.6
2023-04-07T06:21:07.182Z,5.9
2023-04-07T06:41:10.084Z,5.6
2023-04-07T07:01:14.142Z,5.1
2023-04-07T07:21:12.170Z,4.9
2023-04-07T07:41:16.367Z,4.8
2023-04-07T08:01:04.857Z,4.7
2023-04-07T08:21:08.849Z,4.6
2023-04-07T08:41:17.231Z,4.8
2023-04-07T09:01:15.359Z,4.9
2023-04-07T09:21:15.186Z,4.9
2023-04-07T09:41:17.396Z,5.3
2023-04-07T10:01:10.160Z,5.2
2023-04-07T10:21:09.863Z,5.4
2023-04-07T10:41:09.059Z,5.6
2023-04-07T11:01:17.149Z,7.1
2023-04-07T11:21:16.527Z,7.1
2023-04-07T11:40:49.771Z,7.6
2023-04-07T12:01:14.281Z,8.3
2023-04-07T12:21:09.759Z,8.6
2023-04-07T12:41:17.333Z,8.8
2023-04-07T13:01:11.000Z,8.8
2023-04-07T13:41:13.297Z,8.6
2023-04-07T14:01:08.846Z,9.5
2023-04-07T14:21:08.496Z,10.2
2023-04-07T14:41:10.236Z,10.1
2023-04-07T15:01:16.072Z,10.7
2023-04-07T15:21:07.784Z,10.7
2023-04-07T15:41:22.044Z,10.5
2023-04-07T16:01:16.432Z,10.9
2023-04-07T16:21:19.365Z,11.1
2023-04-07T16:41:27.453Z,11
2023-04-07T17:01:16.695Z,11.7
2023-04-07T17:21:09.398Z,11.7
2023-04-07T17:41:12.462Z,11.9
2023-04-07T18:01:14.671Z,10.9
2023-04-07T18:20:48.275Z,10.8
2023-04-07T18:40:46.608Z,10.3
2023-04-07T19:00:47.437Z,9.7
2023-04-07T19:20:47.114Z,9.1
2023-04-07T19:40:49.392Z,8.7
2023-04-07T20:00:51.268Z,8.4
2023-04-07T20:20:48.153Z,8.1
2023-04-07T20:40:47.414Z,8
2023-04-07T21:00:48.351Z,8
2023-04-07T21:20:47.266Z,7.9
2023-04-07T21:40:47.629Z,7.8
2023-04-07T22:01:07.888Z,7.6
2023-04-07T22:20:47.985Z,7.7
2023-04-07T22:40:51.745Z,7.6
2023-04-07T23:00:47.091Z,7.4
2023-04-07T23:21:13.040Z,7.2
2023-04-07T23:41:06.435Z,7.1
